sensor_id;sensor_type;location;lat;lon;timestamp;P1;durP1;ratioP1;P2;durP2;ratioP2
39050;SDS011;24805;55.852;37.644;2024-01-25T00:00:30;17.33;;;9.48;;
39050;SDS011;24805;55.852;37.644;2024-01-25T00:05:33;18.70;;;8.85;;
39050;SDS011;24805;55.852;37.644;2024-01-25T00:10:35;17.63;;;9.10;;
39050;SDS011;24805;55.852;37.644;2024-01-25T00:15:38;18.02;;;9.85;;
39050;SDS011;24805;55.852;37.644;2024-01-25T00:20:40;21.10;;;10.63;;
39050;SDS011;24805;55.852;37.644;2024-01-25T00:25:42;17.95;;;8.48;;
39050;SDS011;24805;55.852;37.644;2024-01-25T00:30:45;20.92;;;10.75;;
39050;SDS011;24805;55.852;37.644;2024-01-25T00:35:47;19.50;;;9.93;;
39050;SDS011;24805;55.852;37.644;2024-01-25T00:40:50;26.25;;;12.85;;
39050;SDS011;24805;55.852;37.644;2024-01-25T00:45:53;15.93;;;7.80;;
39050;SDS011;24805;55.852;37.644;2024-01-25T00:50:56;24.02;;;12.23;;
39050;SDS011;24805;55.852;37.644;2024-01-25T00:55:58;29.13;;;13.63;;
39050;SDS011;24805;55.852;37.644;2024-01-25T01:01:01;25.98;;;12.60;;
39050;SDS011;24805;55.852;37.644;2024-01-25T01:06:04;25.27;;;12.60;;
39050;SDS011;24805;55.852;37.644;2024-01-25T01:11:07;24.67;;;13.35;;
39050;SDS011;24805;55.852;37.644;2024-01-25T01:16:09;26.15;;;13.13;;
39050;SDS011;24805;55.852;37.644;2024-01-25T01:21:12;23.17;;;13.63;;
39050;SDS011;24805;55.852;37.644;2024-01-25T01:26:14;25.45;;;13.02;;
39050;SDS011;24805;55.852;37.644;2024-01-25T01:31:16;20.95;;;11.40;;
39050;SDS011;24805;55.852;37.644;2024-01-25T01:36:19;26.95;;;13.18;;
39050;SDS011;24805;55.852;37.644;2024-01-25T01:41:22;22.80;;;12.98;;
39050;SDS011;24805;55.852;37.644;2024-01-25T01:46:37;23.90;;;13.43;;
39050;SDS011;24805;55.852;37.644;2024-01-25T01:51:42;28.13;;;13.27;;
39050;SDS011;24805;55.852;37.644;2024-01-25T01:56:45;23.98;;;12.52;;
39050;SDS011;24805;55.852;37.644;2024-01-25T02:01:48;24.45;;;11.20;;
39050;SDS011;24805;55.852;37.644;2024-01-25T02:06:51;19.60;;;11.07;;
39050;SDS011;24805;55.852;37.644;2024-01-25T02:12:00;21.08;;;10.80;;
39050;SDS011;24805;55.852;37.644;2024-01-25T02:17:05;20.05;;;9.75;;
39050;SDS011;24805;55.852;37.644;2024-01-25T02:22:07;19.45;;;9.43;;
39050;SDS011;24805;55.852;37.644;2024-01-25T02:27:10;19.58;;;10.85;;
39050;SDS011;24805;55.852;37.644;2024-01-25T02:32:12;19.63;;;9.88;;
39050;SDS011;24805;55.852;37.644;2024-01-25T02:37:15;21.15;;;10.20;;
39050;SDS011;24805;55.852;37.644;2024-01-25T02:42:17;17.73;;;8.63;;
39050;SDS011;24805;55.852;37.644;2024-01-25T02:47:20;17.48;;;9.15;;
39050;SDS011;24805;55.852;37.644;2024-01-25T02:52:22;16.55;;;8.27;;
39050;SDS011;24805;55.852;37.644;2024-01-25T02:57:25;16.63;;;8.63;;
39050;SDS011;24805;55.852;37.644;2024-01-25T03:02:27;15.13;;;9.07;;
39050;SDS011;24805;55.852;37.644;2024-01-25T03:07:30;18.23;;;9.40;;
39050;SDS011;24805;55.852;37.644;2024-01-25T03:12:32;19.88;;;9.48;;
39050;SDS011;24805;55.852;37.644;2024-01-25T03:17:35;14.63;;;7.72;;
39050;SDS011;24805;55.852;37.644;2024-01-25T03:22:37;18.00;;;9.50;;
39050;SDS011;24805;55.852;37.644;2024-01-25T03:27:39;20.73;;;10.20;;
39050;SDS011;24805;55.852;37.644;2024-01-25T03:32:42;20.27;;;9.90;;
39050;SDS011;24805;55.852;37.644;2024-01-25T03:37:45;15.07;;;7.03;;
39050;SDS011;24805;55.852;37.644;2024-01-25T03:42:47;17.40;;;10.90;;
39050;SDS011;24805;55.852;37.644;2024-01-25T03:48:09;22.05;;;11.98;;
39050;SDS011;24805;55.852;37.644;2024-01-25T03:53:11;20.13;;;10.93;;
39050;SDS011;24805;55.852;37.644;2024-01-25T03:58:14;15.98;;;7.85;;
39050;SDS011;24805;55.852;37.644;2024-01-25T04:03:18;11.45;;;6.93;;
39050;SDS011;24805;55.852;37.644;2024-01-25T04:08:21;15.70;;;8.43;;
39050;SDS011;24805;55.852;37.644;2024-01-25T04:13:23;17.92;;;9.35;;
39050;SDS011;24805;55.852;37.644;2024-01-25T04:18:26;16.63;;;8.23;;
39050;SDS011;24805;55.852;37.644;2024-01-25T04:23:28;10.98;;;6.05;;
39050;SDS011;24805;55.852;37.644;2024-01-25T04:28:31;16.27;;;8.73;;
39050;SDS011;24805;55.852;37.644;2024-01-25T04:33:33;17.67;;;8.85;;
39050;SDS011;24805;55.852;37.644;2024-01-25T04:38:36;16.20;;;8.10;;
39050;SDS011;24805;55.852;37.644;2024-01-25T04:43:38;16.58;;;8.98;;
39050;SDS011;24805;55.852;37.644;2024-01-25T04:48:40;17.55;;;9.02;;
39050;SDS011;24805;55.852;37.644;2024-01-25T04:53:43;14.65;;;8.13;;
39050;SDS011;24805;55.852;37.644;2024-01-25T04:58:45;17.80;;;9.25;;
39050;SDS011;24805;55.852;37.644;2024-01-25T05:03:48;16.17;;;9.05;;
39050;SDS011;24805;55.852;37.644;2024-01-25T05:08:50;13.25;;;8.25;;
39050;SDS011;24805;55.852;37.644;2024-01-25T05:13:53;16.55;;;8.40;;
39050;SDS011;24805;55.852;37.644;2024-01-25T05:18:55;17.73;;;9.70;;
39050;SDS011;24805;55.852;37.644;2024-01-25T05:23:58;17.00;;;9.38;;
39050;SDS011;24805;55.852;37.644;2024-01-25T05:29:01;17.65;;;10.13;;
39050;SDS011;24805;55.852;37.644;2024-01-25T05:34:04;14.68;;;8.35;;
39050;SDS011;24805;55.852;37.644;2024-01-25T05:39:06;14.48;;;7.68;;
39050;SDS011;24805;55.852;37.644;2024-01-25T05:44:09;16.58;;;8.57;;
39050;SDS011;24805;55.852;37.644;2024-01-25T05:49:11;14.68;;;8.70;;
39050;SDS011;24805;55.852;37.644;2024-01-25T05:54:14;16.70;;;8.32;;
39050;SDS011;24805;55.852;37.644;2024-01-25T05:59:16;16.67;;;9.13;;
39050;SDS011;24805;55.852;37.644;2024-01-25T06:04:19;20.77;;;10.38;;
39050;SDS011;24805;55.852;37.644;2024-01-25T06:09:21;17.65;;;10.10;;
39050;SDS011;24805;55.852;37.644;2024-01-25T06:14:24;16.15;;;8.68;;
39050;SDS011;24805;55.852;37.644;2024-01-25T06:19:27;16.55;;;8.90;;
39050;SDS011;24805;55.852;37.644;2024-01-25T06:24:30;17.95;;;10.75;;
39050;SDS011;24805;55.852;37.644;2024-01-25T06:29:33;19.52;;;10.23;;
39050;SDS011;24805;55.852;37.644;2024-01-25T06:34:36;12.85;;;7.80;;
39050;SDS011;24805;55.852;37.644;2024-01-25T06:39:38;20.85;;;9.88;;
39050;SDS011;24805;55.852;37.644;2024-01-25T06:44:41;20.98;;;11.27;;
39050;SDS011;24805;55.852;37.644;2024-01-25T06:55:05;16.73;;;9.65;;
39050;SDS011;24805;55.852;37.644;2024-01-25T07:00:08;18.63;;;10.30;;
39050;SDS011;24805;55.852;37.644;2024-01-25T07:05:13;23.80;;;11.50;;
39050;SDS011;24805;55.852;37.644;2024-01-25T07:10:16;19.65;;;11.10;;
39050;SDS011;24805;55.852;37.644;2024-01-25T07:15:19;19.98;;;10.95;;
39050;SDS011;24805;55.852;37.644;2024-01-25T07:20:22;16.60;;;9.38;;
39050;SDS011;24805;55.852;37.644;2024-01-25T07:25:25;21.17;;;10.63;;
39050;SDS011;24805;55.852;37.644;2024-01-25T07:30:28;19.77;;;10.73;;
39050;SDS011;24805;55.852;37.644;2024-01-25T07:35:30;19.55;;;10.90;;
39050;SDS011;24805;55.852;37.644;2024-01-25T07:40:33;18.48;;;11.15;;
39050;SDS011;24805;55.852;37.644;2024-01-25T07:45:36;16.90;;;9.93;;
39050;SDS011;24805;55.852;37.644;2024-01-25T07:50:38;20.42;;;9.50;;
39050;SDS011;24805;55.852;37.644;2024-01-25T07:55:41;14.25;;;7.43;;
39050;SDS011;24805;55.852;37.644;2024-01-25T08:00:43;15.40;;;8.35;;
39050;SDS011;24805;55.852;37.644;2024-01-25T08:05:47;15.63;;;7.57;;
39050;SDS011;24805;55.852;37.644;2024-01-25T08:10:52;17.10;;;9.05;;
39050;SDS011;24805;55.852;37.644;2024-01-25T08:15:55;17.05;;;9.85;;
39050;SDS011;24805;55.852;37.644;2024-01-25T08:20:58;16.67;;;9.15;;
39050;SDS011;24805;55.852;37.644;2024-01-25T08:26:00;16.10;;;7.63;;
39050;SDS011;24805;55.852;37.644;2024-01-25T08:31:03;18.40;;;8.88;;
39050;SDS011;24805;55.852;37.644;2024-01-25T08:36:07;16.80;;;9.02;;
39050;SDS011;24805;55.852;37.644;2024-01-25T08:41:09;15.57;;;8.75;;
39050;SDS011;24805;55.852;37.644;2024-01-25T08:46:14;15.63;;;8.95;;
39050;SDS011;24805;55.852;37.644;2024-01-25T08:51:20;15.63;;;9.40;;
39050;SDS011;24805;55.852;37.644;2024-01-25T08:56:22;14.00;;;8.55;;
39050;SDS011;24805;55.852;37.644;2024-01-25T09:01:25;16.58;;;8.93;;
39050;SDS011;24805;55.852;37.644;2024-01-25T09:06:28;12.05;;;6.78;;
39050;SDS011;24805;55.852;37.644;2024-01-25T09:11:32;15.18;;;8.60;;
39050;SDS011;24805;55.852;37.644;2024-01-25T09:16:34;16.85;;;9.35;;
39050;SDS011;24805;55.852;37.644;2024-01-25T09:21:39;15.43;;;8.15;;
39050;SDS011;24805;55.852;37.644;2024-01-25T09:26:41;14.48;;;8.13;;
39050;SDS011;24805;55.852;37.644;2024-01-25T09:31:44;14.32;;;8.07;;
39050;SDS011;24805;55.852;37.644;2024-01-25T09:36:46;15.77;;;8.25;;
39050;SDS011;24805;55.852;37.644;2024-01-25T09:41:49;15.07;;;8.20;;
39050;SDS011;24805;55.852;37.644;2024-01-25T09:52:14;12.25;;;7.10;;
39050;SDS011;24805;55.852;37.644;2024-01-25T09:57:19;15.90;;;8.57;;
39050;SDS011;24805;55.852;37.644;2024-01-25T10:02:25;15.65;;;8.32;;
39050;SDS011;24805;55.852;37.644;2024-01-25T10:07:37;16.92;;;8.75;;
39050;SDS011;24805;55.852;37.644;2024-01-25T10:12:40;17.20;;;7.90;;
39050;SDS011;24805;55.852;37.644;2024-01-25T10:17:44;15.48;;;8.93;;
39050;SDS011;24805;55.852;37.644;2024-01-25T10:23:06;17.65;;;9.18;;
39050;SDS011;24805;55.852;37.644;2024-01-25T10:28:09;14.77;;;7.97;;
39050;SDS011;24805;55.852;37.644;2024-01-25T10:33:14;11.77;;;6.85;;
39050;SDS011;24805;55.852;37.644;2024-01-25T10:38:18;16.30;;;8.98;;
39050;SDS011;24805;55.852;37.644;2024-01-25T10:43:22;13.60;;;7.25;;
39050;SDS011;24805;55.852;37.644;2024-01-25T10:48:25;16.58;;;8.73;;
39050;SDS011;24805;55.852;37.644;2024-01-25T10:53:32;15.02;;;8.82;;
39050;SDS011;24805;55.852;37.644;2024-01-25T10:58:40;15.07;;;8.77;;
39050;SDS011;24805;55.852;37.644;2024-01-25T11:03:46;14.98;;;7.75;;
39050;SDS011;24805;55.852;37.644;2024-01-25T11:08:49;17.42;;;8.95;;
39050;SDS011;24805;55.852;37.644;2024-01-25T11:13:51;12.25;;;8.32;;
39050;SDS011;24805;55.852;37.644;2024-01-25T11:18:58;15.00;;;8.55;;
39050;SDS011;24805;55.852;37.644;2024-01-25T11:24:19;14.52;;;7.75;;
39050;SDS011;24805;55.852;37.644;2024-01-25T11:29:23;17.10;;;9.65;;
39050;SDS011;24805;55.852;37.644;2024-01-25T11:34:26;16.92;;;10.05;;
39050;SDS011;24805;55.852;37.644;2024-01-25T11:39:28;16.75;;;7.85;;
39050;SDS011;24805;55.852;37.644;2024-01-25T11:44:31;19.65;;;11.00;;
39050;SDS011;24805;55.852;37.644;2024-01-25T11:49:34;18.55;;;10.65;;
39050;SDS011;24805;55.852;37.644;2024-01-25T11:54:37;19.15;;;10.77;;
39050;SDS011;24805;55.852;37.644;2024-01-25T11:59:39;22.00;;;10.85;;
39050;SDS011;24805;55.852;37.644;2024-01-25T12:04:42;17.35;;;9.75;;
39050;SDS011;24805;55.852;37.644;2024-01-25T12:09:44;20.63;;;10.18;;
39050;SDS011;24805;55.852;37.644;2024-01-25T12:14:47;20.75;;;10.27;;
39050;SDS011;24805;55.852;37.644;2024-01-25T12:19:49;19.13;;;11.55;;
39050;SDS011;24805;55.852;37.644;2024-01-25T12:24:58;18.92;;;11.52;;
39050;SDS011;24805;55.852;37.644;2024-01-25T12:30:03;23.70;;;11.63;;
39050;SDS011;24805;55.852;37.644;2024-01-25T12:35:07;18.30;;;10.88;;
39050;SDS011;24805;55.852;37.644;2024-01-25T12:40:11;23.83;;;12.23;;
39050;SDS011;24805;55.852;37.644;2024-01-25T12:45:13;23.58;;;12.30;;
39050;SDS011;24805;55.852;37.644;2024-01-25T12:50:16;24.33;;;12.70;;
39050;SDS011;24805;55.852;37.644;2024-01-25T12:55:19;22.65;;;13.00;;
39050;SDS011;24805;55.852;37.644;2024-01-25T13:00:22;25.70;;;13.70;;
39050;SDS011;24805;55.852;37.644;2024-01-25T13:05:25;27.58;;;14.07;;
39050;SDS011;24805;55.852;37.644;2024-01-25T13:10:27;22.98;;;13.63;;
39050;SDS011;24805;55.852;37.644;2024-01-25T13:15:48;20.00;;;12.20;;
39050;SDS011;24805;55.852;37.644;2024-01-25T13:20:51;22.60;;;12.13;;
39050;SDS011;24805;55.852;37.644;2024-01-25T13:25:53;22.23;;;12.75;;
39050;SDS011;24805;55.852;37.644;2024-01-25T13:30:56;26.92;;;14.10;;
39050;SDS011;24805;55.852;37.644;2024-01-25T13:35:59;23.02;;;11.57;;
39050;SDS011;24805;55.852;37.644;2024-01-25T13:41:01;24.88;;;13.80;;
39050;SDS011;24805;55.852;37.644;2024-01-25T13:46:04;16.50;;;8.95;;
39050;SDS011;24805;55.852;37.644;2024-01-25T13:51:06;18.65;;;9.82;;
39050;SDS011;24805;55.852;37.644;2024-01-25T13:56:09;25.30;;;13.65;;
39050;SDS011;24805;55.852;37.644;2024-01-25T14:01:12;23.20;;;14.38;;
39050;SDS011;24805;55.852;37.644;2024-01-25T14:06:14;25.88;;;14.15;;
39050;SDS011;24805;55.852;37.644;2024-01-25T14:11:17;25.10;;;13.98;;
39050;SDS011;24805;55.852;37.644;2024-01-25T14:16:20;18.48;;;9.52;;
39050;SDS011;24805;55.852;37.644;2024-01-25T14:21:25;23.83;;;14.52;;
39050;SDS011;24805;55.852;37.644;2024-01-25T14:26:28;24.80;;;13.18;;
39050;SDS011;24805;55.852;37.644;2024-01-25T14:31:30;23.75;;;14.90;;
39050;SDS011;24805;55.852;37.644;2024-01-25T14:36:33;28.95;;;14.20;;
39050;SDS011;24805;55.852;37.644;2024-01-25T14:41:35;24.05;;;13.15;;
39050;SDS011;24805;55.852;37.644;2024-01-25T14:46:38;22.42;;;11.88;;
39050;SDS011;24805;55.852;37.644;2024-01-25T14:51:40;21.73;;;12.48;;
39050;SDS011;24805;55.852;37.644;2024-01-25T14:56:42;20.08;;;10.80;;
39050;SDS011;24805;55.852;37.644;2024-01-25T15:01:51;27.50;;;16.02;;
39050;SDS011;24805;55.852;37.644;2024-01-25T15:06:53;24.63;;;15.13;;
39050;SDS011;24805;55.852;37.644;2024-01-25T15:11:56;27.77;;;16.33;;
39050;SDS011;24805;55.852;37.644;2024-01-25T15:16:58;33.78;;;19.90;;
39050;SDS011;24805;55.852;37.644;2024-01-25T15:22:03;26.48;;;15.93;;
39050;SDS011;24805;55.852;37.644;2024-01-25T15:27:06;24.85;;;14.48;;
39050;SDS011;24805;55.852;37.644;2024-01-25T15:32:09;23.20;;;13.95;;
39050;SDS011;24805;55.852;37.644;2024-01-25T15:37:11;24.63;;;14.55;;
39050;SDS011;24805;55.852;37.644;2024-01-25T15:42:14;27.38;;;17.13;;
39050;SDS011;24805;55.852;37.644;2024-01-25T15:47:16;26.23;;;15.77;;
39050;SDS011;24805;55.852;37.644;2024-01-25T15:52:18;23.83;;;13.88;;
39050;SDS011;24805;55.852;37.644;2024-01-25T15:57:22;26.88;;;14.82;;
39050;SDS011;24805;55.852;37.644;2024-01-25T16:02:24;26.92;;;15.18;;
39050;SDS011;24805;55.852;37.644;2024-01-25T16:07:27;23.88;;;11.23;;
39050;SDS011;24805;55.852;37.644;2024-01-25T16:12:29;19.92;;;10.48;;
39050;SDS011;24805;55.852;37.644;2024-01-25T16:17:32;28.10;;;16.33;;
39050;SDS011;24805;55.852;37.644;2024-01-25T16:22:34;26.48;;;14.88;;
39050;SDS011;24805;55.852;37.644;2024-01-25T16:27:39;24.35;;;14.00;;
39050;SDS011;24805;55.852;37.644;2024-01-25T16:32:41;27.95;;;14.85;;
39050;SDS011;24805;55.852;37.644;2024-01-25T16:37:44;22.60;;;12.90;;
39050;SDS011;24805;55.852;37.644;2024-01-25T16:42:47;22.65;;;12.55;;
39050;SDS011;24805;55.852;37.644;2024-01-25T16:47:49;20.05;;;10.55;;
39050;SDS011;24805;55.852;37.644;2024-01-25T16:52:52;21.67;;;12.07;;
39050;SDS011;24805;55.852;37.644;2024-01-25T16:57:56;19.90;;;11.40;;
39050;SDS011;24805;55.852;37.644;2024-01-25T17:02:59;26.38;;;14.23;;
39050;SDS011;24805;55.852;37.644;2024-01-25T17:08:02;24.20;;;14.35;;
39050;SDS011;24805;55.852;37.644;2024-01-25T17:13:04;24.33;;;14.27;;
39050;SDS011;24805;55.852;37.644;2024-01-25T17:18:08;27.13;;;14.82;;
39050;SDS011;24805;55.852;37.644;2024-01-25T17:23:11;27.02;;;13.88;;
39050;SDS011;24805;55.852;37.644;2024-01-25T17:28:13;26.92;;;14.80;;
39050;SDS011;24805;55.852;37.644;2024-01-25T17:33:15;28.25;;;15.55;;
39050;SDS011;24805;55.852;37.644;2024-01-25T17:38:18;26.27;;;14.85;;
39050;SDS011;24805;55.852;37.644;2024-01-25T17:43:21;22.42;;;11.75;;
39050;SDS011;24805;55.852;37.644;2024-01-25T17:48:26;30.00;;;16.63;;
39050;SDS011;24805;55.852;37.644;2024-01-25T17:53:29;26.80;;;15.18;;
39050;SDS011;24805;55.852;37.644;2024-01-25T17:58:31;25.77;;;14.43;;
39050;SDS011;24805;55.852;37.644;2024-01-25T18:03:34;27.00;;;15.23;;
39050;SDS011;24805;55.852;37.644;2024-01-25T18:08:36;27.58;;;15.10;;
39050;SDS011;24805;55.852;37.644;2024-01-25T18:13:39;30.60;;;16.17;;
39050;SDS011;24805;55.852;37.644;2024-01-25T18:18:41;26.83;;;14.63;;
39050;SDS011;24805;55.852;37.644;2024-01-25T18:23:43;25.83;;;13.98;;
39050;SDS011;24805;55.852;37.644;2024-01-25T18:28:49;30.63;;;16.20;;
39050;SDS011;24805;55.852;37.644;2024-01-25T18:33:52;25.75;;;13.75;;
39050;SDS011;24805;55.852;37.644;2024-01-25T18:38:55;23.40;;;11.90;;
39050;SDS011;24805;55.852;37.644;2024-01-25T18:43:57;30.80;;;15.13;;
39050;SDS011;24805;55.852;37.644;2024-01-25T18:49:00;23.05;;;11.32;;
39050;SDS011;24805;55.852;37.644;2024-01-25T18:54:02;23.52;;;13.32;;
39050;SDS011;24805;55.852;37.644;2024-01-25T18:59:08;24.63;;;13.13;;
39050;SDS011;24805;55.852;37.644;2024-01-25T19:04:11;27.38;;;14.45;;
39050;SDS011;24805;55.852;37.644;2024-01-25T19:09:13;64.15;;;29.27;;
39050;SDS011;24805;55.852;37.644;2024-01-25T19:14:17;34.00;;;16.35;;
39050;SDS011;24805;55.852;37.644;2024-01-25T19:19:19;26.38;;;14.75;;
39050;SDS011;24805;55.852;37.644;2024-01-25T19:24:22;28.00;;;16.88;;
39050;SDS011;24805;55.852;37.644;2024-01-25T19:29:25;33.90;;;16.92;;
39050;SDS011;24805;55.852;37.644;2024-01-25T19:34:27;33.58;;;17.70;;
39050;SDS011;24805;55.852;37.644;2024-01-25T19:39:29;27.35;;;13.85;;
39050;SDS011;24805;55.852;37.644;2024-01-25T19:44:32;32.85;;;16.73;;
39050;SDS011;24805;55.852;37.644;2024-01-25T19:49:35;31.80;;;16.88;;
39050;SDS011;24805;55.852;37.644;2024-01-25T19:54:37;28.67;;;14.52;;
39050;SDS011;24805;55.852;37.644;2024-01-25T19:59:41;29.90;;;15.90;;
39050;SDS011;24805;55.852;37.644;2024-01-25T20:04:45;34.35;;;17.73;;
39050;SDS011;24805;55.852;37.644;2024-01-25T20:09:49;30.00;;;14.63;;
39050;SDS011;24805;55.852;37.644;2024-01-25T20:14:52;28.67;;;14.68;;
39050;SDS011;24805;55.852;37.644;2024-01-25T20:19:54;32.70;;;16.05;;
39050;SDS011;24805;55.852;37.644;2024-01-25T20:24:57;21.75;;;11.73;;
39050;SDS011;24805;55.852;37.644;2024-01-25T20:29:59;29.70;;;15.80;;
39050;SDS011;24805;55.852;37.644;2024-01-25T20:35:04;24.52;;;12.68;;
39050;SDS011;24805;55.852;37.644;2024-01-25T20:40:06;34.08;;;18.85;;
39050;SDS011;24805;55.852;37.644;2024-01-25T20:45:10;31.23;;;17.92;;
39050;SDS011;24805;55.852;37.644;2024-01-25T20:50:12;37.78;;;20.17;;
39050;SDS011;24805;55.852;37.644;2024-01-25T20:55:26;36.28;;;20.25;;
39050;SDS011;24805;55.852;37.644;2024-01-25T21:00:28;31.02;;;16.35;;
39050;SDS011;24805;55.852;37.644;2024-01-25T21:05:31;40.88;;;21.25;;
39050;SDS011;24805;55.852;37.644;2024-01-25T21:10:34;38.35;;;19.85;;
39050;SDS011;24805;55.852;37.644;2024-01-25T21:15:36;37.85;;;21.13;;
39050;SDS011;24805;55.852;37.644;2024-01-25T21:20:39;40.08;;;22.25;;
39050;SDS011;24805;55.852;37.644;2024-01-25T21:25:41;33.53;;;17.70;;
39050;SDS011;24805;55.852;37.644;2024-01-25T21:30:43;42.20;;;22.02;;
39050;SDS011;24805;55.852;37.644;2024-01-25T21:35:46;37.05;;;20.40;;
39050;SDS011;24805;55.852;37.644;2024-01-25T21:40:48;33.92;;;19.08;;
39050;SDS011;24805;55.852;37.644;2024-01-25T21:45:50;33.45;;;20.83;;
39050;SDS011;24805;55.852;37.644;2024-01-25T21:50:53;49.78;;;23.40;;
39050;SDS011;24805;55.852;37.644;2024-01-25T21:55:56;40.00;;;20.95;;
39050;SDS011;24805;55.852;37.644;2024-01-25T22:00:59;44.97;;;22.38;;
39050;SDS011;24805;55.852;37.644;2024-01-25T22:06:02;35.78;;;19.45;;
39050;SDS011;24805;55.852;37.644;2024-01-25T22:11:05;38.50;;;20.33;;
39050;SDS011;24805;55.852;37.644;2024-01-25T22:16:08;33.80;;;18.77;;
39050;SDS011;24805;55.852;37.644;2024-01-25T22:21:10;31.02;;;18.80;;
39050;SDS011;24805;55.852;37.644;2024-01-25T22:26:12;32.47;;;18.25;;
39050;SDS011;24805;55.852;37.644;2024-01-25T22:31:15;35.92;;;18.88;;
39050;SDS011;24805;55.852;37.644;2024-01-25T22:36:17;35.30;;;19.42;;
39050;SDS011;24805;55.852;37.644;2024-01-25T22:41:20;27.92;;;15.45;;
39050;SDS011;24805;55.852;37.644;2024-01-25T22:46:22;28.92;;;16.42;;
39050;SDS011;24805;55.852;37.644;2024-01-25T22:51:27;34.55;;;17.67;;
39050;SDS011;24805;55.852;37.644;2024-01-25T22:56:29;29.08;;;15.50;;
39050;SDS011;24805;55.852;37.644;2024-01-25T23:01:31;34.63;;;18.83;;
39050;SDS011;24805;55.852;37.644;2024-01-25T23:06:34;31.25;;;16.88;;
39050;SDS011;24805;55.852;37.644;2024-01-25T23:11:36;26.00;;;14.77;;
39050;SDS011;24805;55.852;37.644;2024-01-25T23:16:39;30.55;;;15.45;;
39050;SDS011;24805;55.852;37.644;2024-01-25T23:21:41;28.98;;;16.40;;
39050;SDS011;24805;55.852;37.644;2024-01-25T23:26:43;32.78;;;19.02;;
39050;SDS011;24805;55.852;37.644;2024-01-25T23:31:47;28.13;;;16.00;;
39050;SDS011;24805;55.852;37.644;2024-01-25T23:36:51;35.75;;;19.35;;
39050;SDS011;24805;55.852;37.644;2024-01-25T23:41:53;32.10;;;18.60;;
39050;SDS011;24805;55.852;37.644;2024-01-25T23:46:56;35.75;;;20.77;;
39050;SDS011;24805;55.852;37.644;2024-01-25T23:51:58;35.25;;;17.70;;
39050;SDS011;24805;55.852;37.644;2024-01-25T23:57:01;29.75;;;17.33;;
